EWG01A LZIB-LZKZ
Flight info
| Callsign | EWG01A |
|---|---|
| Flight time | N/A |
| Altitude | 23000 |
| Route | NIT N190 TAKOS |
| Aircraft | A320/M-SDE3FGHIRWY/LB1 |
Departure
| Time | 2026-05-06 18:48 |
|---|---|
| Airport | M. R. Štefánik Airport (LZIB) |
Arrival
| Time | N/A |
|---|---|
| Airport | Košice International Airport (LZKZ) |
| Time | Latitude | Longitude | Altitude | Speed | Heading |
|---|---|---|---|---|---|
| 2026-05-06 18:21 | 48.16978 | 17.20191 | 217 ft | 0 kts | 313° |
| 2026-05-06 18:30 | 48.16978 | 17.20192 | 443 ft | 0 kts | 313° |
| 2026-05-06 18:33 | 48.16977 | 17.20192 | 443 ft | 0 kts | 313° |
| 2026-05-06 18:40 | 48.16975 | 17.20196 | 443 ft | 2 kts | 313° |
| 2026-05-06 18:40 | 48.16963 | 17.20216 | 440 ft | 3 kts | 324° |
| 2026-05-06 18:40 | 48.16947 | 17.20227 | 435 ft | 3 kts | 0° |
| 2026-05-06 18:40 | 48.16934 | 17.20225 | 438 ft | 3 kts | 27° |
| 2026-05-06 18:41 | 48.16928 | 17.20221 | 432 ft | 0 kts | 40° |
| 2026-05-06 18:43 | 48.16932 | 17.20226 | 438 ft | 3 kts | 40° |
| 2026-05-06 18:43 | 48.16966 | 17.20277 | 439 ft | 10 kts | 46° |
| 2026-05-06 18:43 | 48.17027 | 17.20366 | 435 ft | 15 kts | 44° |
| 2026-05-06 18:43 | 48.17113 | 17.20492 | 434 ft | 21 kts | 46° |
| 2026-05-06 18:44 | 48.17181 | 17.20572 | 434 ft | 12 kts | 21° |
| 2026-05-06 18:44 | 48.17265 | 17.20508 | 437 ft | 16 kts | 316° |
| 2026-05-06 18:44 | 48.17337 | 17.20397 | 430 ft | 16 kts | 314° |
| 2026-05-06 18:44 | 48.17431 | 17.20303 | 439 ft | 10 kts | 350° |
| 2026-05-06 18:45 | 48.17442 | 17.20301 | 439 ft | 1 kts | 353° |
| 2026-05-06 18:45 | 48.17443 | 17.20301 | 440 ft | 0 kts | 353° |
| 2026-05-06 18:46 | 48.17457 | 17.20301 | 430 ft | 6 kts | 2° |
| 2026-05-06 18:46 | 48.17514 | 17.20342 | 431 ft | 12 kts | 39° |
| 2026-05-06 18:46 | 48.17521 | 17.20478 | 438 ft | 16 kts | 126° |
| 2026-05-06 18:47 | 48.17431 | 17.20620 | 436 ft | 26 kts | 135° |
| 2026-05-06 18:47 | 48.17138 | 17.21071 | 432 ft | 94 kts | 135° |
| 2026-05-06 18:47 | 48.16553 | 17.21973 | 434 ft | 146 kts | 136° |
| 2026-05-06 18:47 | 48.15799 | 17.23088 | 937 ft | 155 kts | 137° |
| 2026-05-06 18:48 | 48.15023 | 17.24272 | 1544 ft | 164 kts | 143° |
| 2026-05-06 18:48 | 48.14198 | 17.25521 | 2084 ft | 176 kts | 142° |
| 2026-05-06 18:48 | 48.13290 | 17.26920 | 2386 ft | 198 kts | 142° |
| 2026-05-06 18:48 | 48.12298 | 17.28538 | 2735 ft | 227 kts | 132° |
| 2026-05-06 18:49 | 48.11801 | 17.30992 | 3196 ft | 271 kts | 94° |
| 2026-05-06 18:49 | 48.12182 | 17.33862 | 3951 ft | 289 kts | 78° |
| 2026-05-06 18:49 | 48.12891 | 17.36735 | 4696 ft | 299 kts | 71° |
| 2026-05-06 18:49 | 48.13727 | 17.39600 | 5468 ft | 302 kts | 69° |
| 2026-05-06 18:50 | 48.14593 | 17.42483 | 6398 ft | 304 kts | 69° |
| 2026-05-06 18:50 | 48.15443 | 17.45402 | 7272 ft | 307 kts | 70° |
| 2026-05-06 18:50 | 48.16266 | 17.48361 | 8147 ft | 310 kts | 71° |
| 2026-05-06 18:50 | 48.17054 | 17.51373 | 9001 ft | 311 kts | 76° |
| 2026-05-06 18:51 | 48.17616 | 17.54481 | 9836 ft | 313 kts | 79° |
| 2026-05-06 18:51 | 48.18153 | 17.57701 | 10536 ft | 322 kts | 80° |
| 2026-05-06 18:51 | 48.18694 | 17.61083 | 10833 ft | 344 kts | 80° |
| 2026-05-06 18:51 | 48.19251 | 17.64619 | 11444 ft | 352 kts | 80° |
| 2026-05-06 18:52 | 48.19818 | 17.68212 | 12208 ft | 357 kts | 80° |
| 2026-05-06 18:52 | 48.20396 | 17.71847 | 12985 ft | 360 kts | 80° |
| 2026-05-06 18:52 | 48.20977 | 17.75466 | 13730 ft | 363 kts | 80° |
| 2026-05-06 18:52 | 48.21579 | 17.79213 | 14393 ft | 367 kts | 80° |
| 2026-05-06 18:53 | 48.22173 | 17.82906 | 15015 ft | 371 kts | 80° |
| 2026-05-06 18:53 | 48.22777 | 17.86687 | 15643 ft | 375 kts | 80° |
| 2026-05-06 18:53 | 48.23386 | 17.90514 | 16278 ft | 379 kts | 80° |
| 2026-05-06 18:53 | 48.23999 | 17.94380 | 16906 ft | 383 kts | 79° |
| 2026-05-06 18:54 | 48.24618 | 17.98289 | 17546 ft | 387 kts | 79° |
| 2026-05-06 18:54 | 48.25242 | 18.02239 | 18155 ft | 391 kts | 79° |
| 2026-05-06 18:54 | 48.25872 | 18.06233 | 18693 ft | 395 kts | 79° |
| 2026-05-06 18:54 | 48.26508 | 18.10261 | 19230 ft | 398 kts | 79° |
| 2026-05-06 18:55 | 48.27147 | 18.14329 | 19789 ft | 401 kts | 79° |
| 2026-05-06 18:55 | 48.27786 | 18.18417 | 20332 ft | 404 kts | 79° |
| 2026-05-06 18:55 | 48.28430 | 18.22545 | 20881 ft | 407 kts | 79° |
| 2026-05-06 18:55 | 48.29078 | 18.26697 | 21404 ft | 410 kts | 79° |
| 2026-05-06 18:56 | 48.29731 | 18.30888 | 21931 ft | 413 kts | 78° |
| 2026-05-06 18:56 | 48.30383 | 18.35107 | 22426 ft | 416 kts | 79° |
| 2026-05-06 18:56 | 48.31036 | 18.39363 | 22776 ft | 419 kts | 79° |
| 2026-05-06 18:56 | 48.31690 | 18.43628 | 22849 ft | 419 kts | 78° |
| 2026-05-06 18:57 | 48.32346 | 18.47890 | 22851 ft | 419 kts | 78° |
| 2026-05-06 18:57 | 48.33004 | 18.52158 | 22858 ft | 419 kts | 78° |
| 2026-05-06 18:57 | 48.33658 | 18.56415 | 22859 ft | 418 kts | 78° |
| 2026-05-06 18:57 | 48.34310 | 18.60682 | 22861 ft | 418 kts | 79° |
| 2026-05-06 18:58 | 48.34957 | 18.64943 | 22862 ft | 418 kts | 79° |
| 2026-05-06 18:58 | 48.35602 | 18.69212 | 22864 ft | 418 kts | 78° |
| 2026-05-06 18:58 | 48.36239 | 18.73419 | 22867 ft | 418 kts | 79° |
| 2026-05-06 18:58 | 48.36882 | 18.77684 | 22869 ft | 418 kts | 79° |
| 2026-05-06 18:59 | 48.37523 | 18.81951 | 22874 ft | 418 kts | 79° |
| 2026-05-06 18:59 | 48.38171 | 18.86270 | 22877 ft | 418 kts | 79° |
| 2026-05-06 18:59 | 48.38801 | 18.90483 | 22873 ft | 418 kts | 79° |
| 2026-05-06 18:59 | 48.39439 | 18.94747 | 22874 ft | 417 kts | 79° |
| 2026-05-06 19:00 | 48.40071 | 18.99004 | 22874 ft | 417 kts | 79° |
| 2026-05-06 19:00 | 48.40705 | 19.03271 | 22872 ft | 417 kts | 79° |
| 2026-05-06 19:00 | 48.41336 | 19.07534 | 22871 ft | 417 kts | 79° |
| 2026-05-06 19:00 | 48.41965 | 19.11795 | 22878 ft | 417 kts | 79° |
| 2026-05-06 19:01 | 48.42594 | 19.16058 | 22877 ft | 417 kts | 79° |
| 2026-05-06 19:01 | 48.43219 | 19.20321 | 22872 ft | 417 kts | 79° |
| 2026-05-06 19:01 | 48.43839 | 19.24582 | 22876 ft | 417 kts | 79° |
| 2026-05-06 19:01 | 48.44460 | 19.28845 | 22877 ft | 417 kts | 79° |
| 2026-05-06 19:02 | 48.45081 | 19.33113 | 22879 ft | 416 kts | 79° |
| 2026-05-06 19:02 | 48.45701 | 19.37374 | 22880 ft | 417 kts | 79° |
| 2026-05-06 19:02 | 48.46318 | 19.41636 | 22881 ft | 417 kts | 79° |
| 2026-05-06 19:02 | 48.46932 | 19.45903 | 22884 ft | 417 kts | 79° |
| 2026-05-06 19:03 | 48.47583 | 19.50156 | 22878 ft | 417 kts | 74° |
| 2026-05-06 19:03 | 48.48491 | 19.54308 | 22813 ft | 416 kts | 72° |
| 2026-05-06 19:03 | 48.49425 | 19.58406 | 22272 ft | 413 kts | 71° |
| 2026-05-06 19:03 | 48.50364 | 19.62435 | 21747 ft | 410 kts | 71° |
| 2026-05-06 19:04 | 48.51313 | 19.66484 | 21261 ft | 407 kts | 71° |
| 2026-05-06 19:04 | 48.52251 | 19.70500 | 20784 ft | 405 kts | 72° |
| 2026-05-06 19:04 | 48.53175 | 19.74488 | 20328 ft | 402 kts | 72° |
| 2026-05-06 19:04 | 48.54087 | 19.78460 | 19863 ft | 399 kts | 72° |
| 2026-05-06 19:05 | 48.54988 | 19.82409 | 19413 ft | 397 kts | 72° |
| 2026-05-06 19:05 | 48.55880 | 19.86329 | 19137 ft | 389 kts | 72° |
| 2026-05-06 19:05 | 48.56745 | 19.90132 | 19006 ft | 377 kts | 72° |
| 2026-05-06 19:05 | 48.57587 | 19.93839 | 18781 ft | 370 kts | 73° |
| 2026-05-06 19:06 | 48.58422 | 19.97529 | 18197 ft | 372 kts | 73° |
| 2026-05-06 19:06 | 48.59250 | 20.01193 | 17505 ft | 366 kts | 73° |
| 2026-05-06 19:06 | 48.60064 | 20.04801 | 16815 ft | 360 kts | 73° |
| 2026-05-06 19:06 | 48.60865 | 20.08366 | 16151 ft | 356 kts | 73° |
| 2026-05-06 19:07 | 48.61655 | 20.11883 | 15504 ft | 352 kts | 73° |
| 2026-05-06 19:07 | 48.62173 | 20.14188 | 15073 ft | 349 kts | 73° |
| 2026-05-06 19:07 | 48.63211 | 20.18803 | 14243 ft | 344 kts | 73° |
| 2026-05-06 19:07 | 48.63976 | 20.22220 | 13616 ft | 341 kts | 73° |
| 2026-05-06 19:08 | 48.64730 | 20.25604 | 12932 ft | 337 kts | 73° |
| 2026-05-06 19:08 | 48.65464 | 20.28900 | 12268 ft | 334 kts | 73° |
| 2026-05-06 19:08 | 48.66203 | 20.32223 | 11607 ft | 331 kts | 73° |
| 2026-05-06 19:08 | 48.66933 | 20.35507 | 10963 ft | 328 kts | 73° |
| 2026-05-06 19:09 | 48.67655 | 20.38766 | 10335 ft | 325 kts | 73° |
| 2026-05-06 19:09 | 48.68369 | 20.41993 | 9704 ft | 323 kts | 73° |
| 2026-05-06 19:09 | 48.69080 | 20.45199 | 9147 ft | 317 kts | 73° |
| 2026-05-06 19:09 | 48.69764 | 20.48283 | 9004 ft | 306 kts | 73° |
| 2026-05-06 19:10 | 48.70439 | 20.51329 | 9009 ft | 304 kts | 74° |
| 2026-05-06 19:10 | 48.71108 | 20.54355 | 9014 ft | 303 kts | 74° |
| 2026-05-06 19:10 | 48.71776 | 20.57391 | 9007 ft | 304 kts | 74° |
| 2026-05-06 19:10 | 48.72445 | 20.60429 | 9011 ft | 305 kts | 74° |
| 2026-05-06 19:11 | 48.73113 | 20.63465 | 9008 ft | 303 kts | 74° |
| 2026-05-06 19:11 | 48.73780 | 20.66507 | 9014 ft | 308 kts | 73° |
| 2026-05-06 19:11 | 48.74452 | 20.69585 | 9006 ft | 307 kts | 73° |
| 2026-05-06 19:11 | 48.75126 | 20.72665 | 9008 ft | 308 kts | 73° |
| 2026-05-06 19:12 | 48.75799 | 20.75748 | 9010 ft | 308 kts | 75° |
| 2026-05-06 19:12 | 48.76468 | 20.78820 | 9007 ft | 308 kts | 73° |
| 2026-05-06 19:12 | 48.77139 | 20.81907 | 9011 ft | 309 kts | 74° |
| 2026-05-06 19:12 | 48.77810 | 20.84994 | 8617 ft | 309 kts | 74° |
| 2026-05-06 19:13 | 48.78478 | 20.88087 | 7918 ft | 308 kts | 73° |
| 2026-05-06 19:13 | 48.79141 | 20.91166 | 7204 ft | 306 kts | 73° |
| 2026-05-06 19:13 | 48.79801 | 20.94226 | 6527 ft | 305 kts | 74° |
| 2026-05-06 19:13 | 48.80453 | 20.97237 | 6085 ft | 295 kts | 72° |
| 2026-05-06 19:14 | 48.81098 | 21.00202 | 5995 ft | 295 kts | 73° |
| 2026-05-06 19:14 | 48.81731 | 21.03127 | 5998 ft | 296 kts | 74° |
| 2026-05-06 19:14 | 48.82372 | 21.06102 | 6000 ft | 297 kts | 74° |
| 2026-05-06 19:14 | 48.83011 | 21.09072 | 6006 ft | 296 kts | 74° |
| 2026-05-06 19:15 | 48.83634 | 21.11978 | 5990 ft | 281 kts | 74° |
| 2026-05-06 19:15 | 48.84220 | 21.14703 | 6008 ft | 266 kts | 75° |
| 2026-05-06 19:15 | 48.84790 | 21.17363 | 5988 ft | 265 kts | 75° |
| 2026-05-06 19:15 | 48.85356 | 21.20007 | 5659 ft | 263 kts | 75° |
| 2026-05-06 19:16 | 48.85909 | 21.22646 | 5335 ft | 261 kts | 75° |
| 2026-05-06 19:16 | 48.86368 | 21.25299 | 5007 ft | 257 kts | 91° |
| 2026-05-06 19:16 | 48.85983 | 21.27809 | 4689 ft | 240 kts | 126° |
| 2026-05-06 19:16 | 48.84761 | 21.29467 | 3866 ft | 241 kts | 165° |
| 2026-05-06 19:17 | 48.83120 | 21.29758 | 3429 ft | 235 kts | 186° |
| 2026-05-06 19:17 | 48.81554 | 21.29430 | 3311 ft | 220 kts | 197° |
| 2026-05-06 19:17 | 48.80107 | 21.28848 | 3305 ft | 214 kts | 196° |
| 2026-05-06 19:17 | 48.78668 | 21.28348 | 3268 ft | 207 kts | 196° |
| 2026-05-06 19:18 | 48.77287 | 21.27889 | 3148 ft | 198 kts | 195° |
| 2026-05-06 19:18 | 48.75973 | 21.27451 | 2993 ft | 189 kts | 195° |